Time;durP1;ratioP1;P1;durP2;ratioP2;P2;SDS_P1;SDS_P2;PMS_P1;PMS_P2;Temp;Humidity;BMP_temperature;BMP_pressure;BME280_temperature;BME280_humidity;BME280_pressure;Samples;Min_cycle;Max_cycle;Signal;HPM_P1;HPM_P2
2022/02/12 00:01:55;;;;;;;26.90;6.13;;;-1.30;99.90;;;;;;5041058;28;20029;-60
2022/02/12 00:04:21;;;;;;;18.27;6.57;;;-1.30;99.90;;;;;;5035942;28;20463;-57
2022/02/12 00:06:46;;;;;;;23.30;5.90;;;-1.30;99.90;;;;;;5042344;28;20502;-54
2022/02/12 00:09:11;;;;;;;25.20;6.10;;;-1.20;99.90;;;;;;5036975;28;20518;-59
2022/02/12 00:11:37;;;;;;;23.93;6.33;;;-1.30;99.90;;;;;;5039321;28;20029;-59
2022/02/12 00:14:03;;;;;;;26.30;6.30;;;-1.30;99.90;;;;;;5041845;28;20053;-60
2022/02/12 00:16:28;;;;;;;17.33;5.93;;;-1.30;99.90;;;;;;5038185;28;20033;-59
2022/02/12 00:18:54;;;;;;;19.70;7.20;;;-1.30;99.90;;;;;;5047276;28;20029;-59
2022/02/12 00:21:24;;;;;;;32.90;6.60;;;-1.40;99.90;;;;;;5047120;28;20036;-59
2022/02/12 00:23:49;;;;;;;32.77;7.33;;;-1.40;99.90;;;;;;5050259;28;20371;-57
2022/02/12 00:26:16;;;;;;;20.97;5.60;;;-1.40;99.90;;;;;;5046017;28;20036;-59
2022/02/12 00:28:41;;;;;;;26.67;6.47;;;-1.40;99.90;;;;;;5045841;28;20029;-59
2022/02/12 00:31:10;;;;;;;21.90;6.23;;;-1.50;99.90;;;;;;5049064;28;20036;-60
2022/02/12 00:33:35;;;;;;;19.87;5.33;;;-1.50;99.90;;;;;;5049912;28;20087;-59
2022/02/12 00:36:01;;;;;;;25.63;7.90;;;-1.50;99.90;;;;;;5044196;28;20434;-59
2022/02/12 00:38:26;;;;;;;20.93;6.03;;;-1.40;99.90;;;;;;5047199;28;20468;-60
2022/02/12 00:40:52;;;;;;;20.10;5.70;;;-1.50;99.90;;;;;;5050649;28;20520;-59
2022/02/12 00:43:17;;;;;;;29.10;7.00;;;-1.40;99.90;;;;;;5044964;28;20487;-59
2022/02/12 00:45:46;;;;;;;23.87;7.57;;;-1.40;99.90;;;;;;5042443;28;20078;-60
2022/02/12 00:48:12;;;;;;;20.13;6.83;;;-1.50;99.90;;;;;;5050484;28;20060;-60
2022/02/12 00:50:37;;;;;;;29.33;6.20;;;-1.40;99.90;;;;;;5047522;28;20029;-59
2022/02/12 00:53:03;;;;;;;21.03;6.73;;;-1.40;99.90;;;;;;5047776;28;20510;-60
2022/02/12 00:55:28;;;;;;;25.60;7.50;;;-1.40;99.90;;;;;;5041695;28;20037;-58
2022/02/12 00:57:54;;;;;;;25.17;6.53;;;-1.50;99.90;;;;;;5047421;28;20482;-59
2022/02/12 01:00:20;;;;;;;28.27;7.60;;;-1.50;99.90;;;;;;5049842;28;20021;-60
2022/02/12 01:02:45;;;;;;;35.33;6.93;;;-1.50;99.90;;;;;;5050275;28;20498;-59
2022/02/12 01:05:11;;;;;;;18.80;6.20;;;-1.50;99.90;;;;;;5037624;28;20074;-58
2022/02/12 01:07:36;;;;;;;24.83;6.60;;;-1.50;99.90;;;;;;5042471;28;20029;-60
2022/02/12 01:10:02;;;;;;;14.00;5.70;;;-1.60;99.90;;;;;;5047662;28;20048;-58
2022/02/12 01:12:28;;;;;;;23.37;6.43;;;-1.60;99.90;;;;;;5045980;28;20509;-60
2022/02/12 01:14:53;;;;;;;28.17;6.33;;;-1.60;99.90;;;;;;5045631;28;20037;-59
2022/02/12 01:17:19;;;;;;;25.83;5.87;;;-1.70;99.90;;;;;;5047629;28;20017;-57
2022/02/12 01:19:48;;;;;;;21.10;7.20;;;-1.70;99.90;;;;;;5043203;28;20030;-60
2022/02/12 01:22:14;;;;;;;17.33;6.60;;;-1.70;99.90;;;;;;5043401;28;20035;-61
2022/02/12 01:24:41;;;;;;;20.37;6.97;;;-1.70;99.90;;;;;;5044319;28;20025;-57
2022/02/12 01:27:07;;;;;;;29.90;7.77;;;-1.70;99.90;;;;;;5046533;28;20024;-58
2022/02/12 01:29:33;;;;;;;20.90;6.67;;;-1.80;99.90;;;;;;5036917;28;20501;-59
2022/02/12 01:32:04;;;;;;;19.47;6.33;;;-1.70;99.90;;;;;;5037595;28;20033;-58
2022/02/12 01:34:36;;;;;;;26.03;6.67;;;-1.70;99.90;;;;;;5047543;28;20031;-59
2022/02/12 01:37:04;;;;;;;25.40;6.63;;;-1.80;99.90;;;;;;5037516;28;20037;-58
2022/02/12 01:39:30;;;;;;;18.30;6.20;;;-1.80;99.90;;;;;;5035186;28;20025;-56
2022/02/12 01:41:56;;;;;;;29.40;8.07;;;-1.80;99.90;;;;;;5044214;28;20033;-59
2022/02/12 01:44:47;;;;;;;26.10;7.67;;;-1.80;99.90;;;;;;5039161;28;20071;-59
2022/02/12 01:47:22;;;;;;;26.37;7.03;;;-1.80;99.90;;;;;;5048549;28;20112;-60
2022/02/12 01:49:47;;;;;;;21.93;7.67;;;-1.80;99.90;;;;;;5014286;28;20044;-58
2022/02/12 01:52:14;;;;;;;18.53;6.87;;;-1.90;99.90;;;;;;5036102;28;20017;-58
2022/02/12 01:54:40;;;;;;;22.67;6.50;;;-1.90;99.90;;;;;;5042916;28;20029;-59
2022/02/12 01:57:07;;;;;;;32.10;6.90;;;-1.90;99.90;;;;;;5031880;28;20136;-59
2022/02/12 01:59:33;;;;;;;25.70;6.27;;;-1.90;99.90;;;;;;5040639;28;20029;-59
2022/02/12 02:01:59;;;;;;;25.77;7.73;;;-1.90;99.90;;;;;;5048959;28;20161;-56
2022/02/12 02:04:25;;;;;;;17.87;5.87;;;-1.90;99.90;;;;;;5048457;28;20028;-60
2022/02/12 02:06:51;;;;;;;19.53;7.97;;;-1.90;99.90;;;;;;5045698;28;20071;-60
2022/02/12 02:09:19;;;;;;;19.70;6.47;;;-1.90;99.90;;;;;;5043863;28;20083;-60
2022/02/12 02:11:45;;;;;;;16.10;5.80;;;-1.90;99.90;;;;;;5041652;28;20383;-58
2022/02/12 02:14:11;;;;;;;17.70;5.90;;;-1.90;99.90;;;;;;5044260;28;20091;-58
2022/02/12 02:16:40;;;;;;;20.83;5.77;;;-1.90;99.90;;;;;;5040577;28;20136;-60
2022/02/12 02:19:06;;;;;;;30.27;6.00;;;-1.90;99.90;;;;;;5035495;28;20161;-60
2022/02/12 02:21:35;;;;;;;23.07;6.17;;;-2.00;99.90;;;;;;5043187;28;20407;-59
2022/02/12 02:24:01;;;;;;;20.17;5.90;;;-2.00;99.90;;;;;;5045245;28;20033;-58
2022/02/12 02:26:26;;;;;;;13.77;5.80;;;-2.00;99.90;;;;;;5042341;28;20044;-59
2022/02/12 02:28:52;;;;;;;25.57;6.67;;;-1.90;99.90;;;;;;5049693;28;20036;-59
2022/02/12 02:31:17;;;;;;;23.13;6.50;;;-2.00;99.90;;;;;;5042992;28;20546;-59
2022/02/12 02:33:43;;;;;;;34.60;7.20;;;-2.00;99.90;;;;;;5050012;28;20546;-58
2022/02/12 02:36:09;;;;;;;20.13;7.83;;;-2.00;99.90;;;;;;5038001;28;20117;-58
2022/02/12 02:38:34;;;;;;;19.07;6.73;;;-2.00;99.90;;;;;;5047885;28;20045;-59
2022/02/12 02:41:00;;;;;;;17.40;6.47;;;-2.00;99.90;;;;;;5047651;28;20430;-60
2022/02/12 02:43:27;;;;;;;20.30;5.90;;;-2.00;99.90;;;;;;5047863;28;20029;-58
2022/02/12 02:45:52;;;;;;;23.30;6.07;;;-2.00;99.90;;;;;;5045312;28;20167;-59
2022/02/12 02:48:18;;;;;;;20.40;6.57;;;-2.00;99.90;;;;;;5047339;28;20111;-59
2022/02/12 02:56:14;;;;;;;20.70;6.60;;;-2.10;99.90;;;;;;5049044;28;20080;-58
2022/02/12 02:58:46;;;;;;;27.07;6.10;;;-2.10;99.90;;;;;;5048560;28;20033;-59
2022/02/12 03:01:14;;;;;;;27.40;6.03;;;-2.10;99.90;;;;;;5040669;28;20108;-60
2022/02/12 03:03:41;;;;;;;24.37;5.90;;;-2.20;99.90;;;;;;5034145;28;20104;-59
2022/02/12 03:06:08;;;;;;;17.27;5.80;;;-2.20;99.90;;;;;;5047747;28;20032;-58
2022/02/12 03:08:33;;;;;;;28.33;7.80;;;-2.20;99.90;;;;;;5037376;28;20132;-58
2022/02/12 03:11:00;;;;;;;20.43;8.30;;;-2.20;99.90;;;;;;5038120;28;20526;-59
2022/02/12 03:13:26;;;;;;;21.73;5.47;;;-2.20;99.90;;;;;;5043985;28;20094;-60
2022/02/12 03:15:51;;;;;;;21.47;6.23;;;-2.20;99.90;;;;;;5036932;28;20116;-59
2022/02/12 03:18:17;;;;;;;19.37;6.37;;;-2.20;99.90;;;;;;5049262;28;20104;-60
2022/02/12 03:20:43;;;;;;;19.67;6.00;;;-2.20;99.90;;;;;;5039520;28;20025;-60
2022/02/12 03:23:09;;;;;;;29.03;9.17;;;-2.20;99.90;;;;;;5036548;28;20530;-60
2022/02/12 03:25:34;;;;;;;31.73;6.27;;;-2.20;99.90;;;;;;5053321;28;20025;-59
2022/02/12 03:28:02;;;;;;;23.10;8.00;;;-2.20;99.90;;;;;;5044916;28;20029;-59
2022/02/12 03:30:30;;;;;;;18.23;6.70;;;-2.20;99.90;;;;;;5017725;28;20029;-58
2022/02/12 03:32:55;;;;;;;21.27;6.93;;;-2.20;99.90;;;;;;5033391;28;20037;-59
2022/02/12 03:35:26;;;;;;;18.47;6.90;;;-2.20;99.90;;;;;;5034678;28;20036;-59
2022/02/12 03:37:52;;;;;;;14.80;5.77;;;-2.20;99.90;;;;;;5048921;28;20103;-60
2022/02/12 03:40:18;;;;;;;25.00;6.67;;;-2.30;99.90;;;;;;5048179;28;20498;-59
2022/02/12 03:42:44;;;;;;;32.10;7.47;;;-2.30;99.90;;;;;;5044009;28;20025;-60
2022/02/12 03:45:10;;;;;;;20.43;6.33;;;-2.30;99.90;;;;;;5042788;28;20436;-59
2022/02/12 03:47:36;;;;;;;28.13;6.93;;;-2.30;99.90;;;;;;5048555;28;20078;-60
2022/02/12 03:50:03;;;;;;;26.77;7.10;;;-2.30;99.90;;;;;;5037393;28;20021;-59
2022/02/12 03:52:28;;;;;;;26.30;7.37;;;-2.30;99.90;;;;;;5040815;28;20025;-57
2022/02/12 03:54:54;;;;;;;23.17;6.07;;;-2.30;99.90;;;;;;5043928;28;20388;-59
2022/02/12 03:57:19;;;;;;;22.50;6.97;;;-2.30;99.90;;;;;;5044358;28;20021;-59
2022/02/12 03:59:45;;;;;;;15.97;5.50;;;-2.30;99.90;;;;;;5042587;28;20025;-59
2022/02/12 04:02:11;;;;;;;22.30;6.80;;;-2.30;99.90;;;;;;5041126;28;20024;-59
2022/02/12 04:04:36;;;;;;;28.13;7.10;;;-2.30;99.90;;;;;;5043388;28;20095;-59
2022/02/12 04:07:03;;;;;;;17.40;5.60;;;-2.30;99.90;;;;;;5043780;28;20029;-58
2022/02/12 04:09:29;;;;;;;19.20;6.33;;;-2.20;99.90;;;;;;5044058;28;20088;-59
2022/02/12 04:11:55;;;;;;;28.03;6.23;;;-2.20;99.90;;;;;;5049096;28;20025;-58
2022/02/12 04:14:21;;;;;;;17.23;5.10;;;-2.20;99.90;;;;;;5043706;28;20029;-59
2022/02/12 04:16:47;;;;;;;23.80;6.53;;;-2.20;99.90;;;;;;5040962;28;20433;-59
2022/02/12 04:19:12;;;;;;;32.10;6.37;;;-2.20;99.90;;;;;;5044408;28;20171;-58
2022/02/12 04:21:38;;;;;;;24.83;6.23;;;-2.30;99.90;;;;;;5040650;28;20345;-59
2022/02/12 04:24:04;;;;;;;16.27;4.70;;;-2.20;99.90;;;;;;5043957;28;20549;-58
2022/02/12 04:26:30;;;;;;;25.17;5.67;;;-2.30;99.90;;;;;;5038282;28;20057;-58
2022/02/12 04:28:55;;;;;;;20.03;5.23;;;-2.30;99.90;;;;;;5049149;28;20071;-59
2022/02/12 04:31:23;;;;;;;16.70;5.37;;;-2.30;99.90;;;;;;5022614;28;20049;-58
2022/02/12 04:33:48;;;;;;;14.33;5.47;;;-2.30;99.90;;;;;;5032568;28;20021;-57
2022/02/12 04:36:14;;;;;;;17.73;5.53;;;-2.30;99.90;;;;;;5038012;28;20505;-59
2022/02/12 04:38:39;;;;;;;20.63;5.43;;;-2.30;99.90;;;;;;5038492;28;20045;-58
2022/02/12 04:41:05;;;;;;;22.37;5.80;;;-2.20;99.90;;;;;;5045810;28;20034;-58
2022/02/12 04:43:31;;;;;;;21.20;5.57;;;-2.20;99.90;;;;;;5036323;28;20074;-59
2022/02/12 04:45:57;;;;;;;17.83;5.00;;;-2.20;99.90;;;;;;5038499;28;20025;-58
2022/02/12 04:48:23;;;;;;;19.83;5.17;;;-2.20;99.90;;;;;;5037184;28;20033;-58
2022/02/12 04:50:48;;;;;;;23.47;5.37;;;-2.20;99.90;;;;;;5046788;28;20151;-59
2022/02/12 04:53:14;;;;;;;13.93;5.27;;;-2.30;99.90;;;;;;5037468;28;20040;-59
2022/02/12 04:55:39;;;;;;;21.60;5.87;;;-2.20;99.90;;;;;;5042769;28;20025;-58
2022/02/12 04:58:05;;;;;;;28.23;5.97;;;-2.30;99.90;;;;;;5039912;28;20480;-59
2022/02/12 05:00:30;;;;;;;23.77;5.17;;;-2.30;99.90;;;;;;5049398;28;20477;-58
2022/02/12 05:02:56;;;;;;;18.03;6.07;;;-2.30;99.90;;;;;;5038281;28;20403;-59
2022/02/12 05:05:21;;;;;;;21.77;5.80;;;-2.30;99.90;;;;;;5038375;28;20034;-59
2022/02/12 05:07:47;;;;;;;17.97;5.23;;;-2.30;99.90;;;;;;5039968;28;20029;-58
2022/02/12 05:10:13;;;;;;;15.90;5.17;;;-2.40;99.90;;;;;;5046080;28;20057;-59
2022/02/12 05:12:39;;;;;;;26.90;5.70;;;-2.40;99.90;;;;;;5041264;28;20032;-58
2022/02/12 05:15:05;;;;;;;22.87;5.03;;;-2.40;99.90;;;;;;5037176;28;20033;-58
2022/02/12 05:17:31;;;;;;;27.27;5.63;;;-2.40;99.90;;;;;;5041888;28;20389;-59
2022/02/12 05:19:56;;;;;;;11.33;5.17;;;-2.40;99.90;;;;;;5039651;28;20028;-58
2022/02/12 05:22:22;;;;;;;22.63;6.47;;;-2.40;99.90;;;;;;5046025;28;20025;-58
2022/02/12 05:24:47;;;;;;;18.23;7.00;;;-2.40;99.90;;;;;;5040089;28;20021;-59
2022/02/12 05:27:13;;;;;;;25.80;5.73;;;-2.50;99.90;;;;;;5036373;28;20025;-59
2022/02/12 05:29:38;;;;;;;18.63;5.43;;;-2.50;99.90;;;;;;5032003;28;20036;-59
2022/02/12 05:32:04;;;;;;;21.03;5.30;;;-2.50;99.90;;;;;;5031155;28;20476;-58
2022/02/12 05:34:29;;;;;;;22.37;6.20;;;-2.50;99.90;;;;;;5040718;28;20814;-58
2022/02/12 05:36:55;;;;;;;17.73;6.30;;;-2.50;99.90;;;;;;5038699;28;20033;-59
2022/02/12 05:39:21;;;;;;;20.77;5.70;;;-2.50;99.90;;;;;;5036512;28;20553;-57
2022/02/12 05:41:46;;;;;;;13.23;4.90;;;-2.50;99.90;;;;;;5032883;28;20038;-59
2022/02/12 05:44:12;;;;;;;20.60;5.40;;;-2.50;99.90;;;;;;5035641;28;20061;-59
2022/02/12 05:46:38;;;;;;;29.87;5.83;;;-2.60;99.90;;;;;;5043187;28;20174;-59
2022/02/12 05:49:05;;;;;;;15.97;5.13;;;-2.60;99.90;;;;;;5038039;28;20078;-59
2022/02/12 05:51:33;;;;;;;21.10;5.27;;;-2.60;99.90;;;;;;5039595;28;20038;-59
2022/02/12 05:54:00;;;;;;;23.13;6.30;;;-2.60;99.90;;;;;;5046611;28;20108;-57
2022/02/12 05:56:26;;;;;;;26.43;5.97;;;-2.60;99.90;;;;;;5041988;28;20033;-58
2022/02/12 05:58:52;;;;;;;22.73;5.47;;;-2.60;99.90;;;;;;5042270;28;20022;-59
2022/02/12 06:01:18;;;;;;;18.57;5.73;;;-2.60;99.90;;;;;;5033104;28;20036;-59
2022/02/12 06:03:43;;;;;;;20.33;6.10;;;-2.60;99.90;;;;;;5045325;28;20395;-58
2022/02/12 06:06:09;;;;;;;25.43;6.03;;;-2.60;99.90;;;;;;5040488;28;20037;-59
2022/02/12 06:08:34;;;;;;;19.47;5.73;;;-2.60;99.90;;;;;;5039578;28;20033;-58
2022/02/12 06:11:03;;;;;;;22.57;6.00;;;-2.60;99.90;;;;;;5036287;28;20100;-59
2022/02/12 06:13:29;;;;;;;17.90;4.93;;;-2.60;99.90;;;;;;5034539;28;20040;-55
2022/02/12 06:15:54;;;;;;;13.07;5.17;;;-2.60;99.90;;;;;;5043059;28;20032;-57
2022/02/12 06:18:20;;;;;;;19.23;5.40;;;-2.60;99.90;;;;;;5033981;28;20041;-58
2022/02/12 06:20:45;;;;;;;18.53;4.57;;;-2.60;99.90;;;;;;5035295;28;20028;-57
2022/02/12 06:23:11;;;;;;;35.20;7.00;;;-2.60;99.90;;;;;;5043601;28;20040;-59
2022/02/12 06:25:36;;;;;;;24.90;6.03;;;-2.60;99.90;;;;;;5038191;28;20025;-59
2022/02/12 06:28:04;;;;;;;20.30;5.97;;;-2.60;99.90;;;;;;5038074;28;20037;-59
2022/02/12 06:30:30;;;;;;;25.50;6.57;;;-2.60;99.90;;;;;;5044253;28;20039;-59
2022/02/12 06:32:59;;;;;;;17.87;5.37;;;-2.60;99.90;;;;;;5032269;28;20044;-59
2022/02/12 06:35:28;;;;;;;21.93;6.03;;;-2.60;99.90;;;;;;5049682;28;20079;-59
2022/02/12 06:37:55;;;;;;;16.70;5.20;;;-2.60;99.90;;;;;;5036905;28;20558;-60
2022/02/12 06:40:21;;;;;;;17.43;5.47;;;-2.60;99.90;;;;;;5039590;28;20510;-58
2022/02/12 06:42:49;;;;;;;28.40;6.30;;;-2.60;99.90;;;;;;5042401;28;20030;-60
2022/02/12 06:45:15;;;;;;;21.00;5.10;;;-2.60;99.90;;;;;;5040562;28;20476;-59
2022/02/12 06:47:41;;;;;;;25.10;6.07;;;-2.60;99.90;;;;;;5044493;28;20526;-59
2022/02/12 06:50:07;;;;;;;20.07;4.63;;;-2.60;99.90;;;;;;5041662;28;20040;-57
2022/02/12 06:52:32;;;;;;;21.67;6.43;;;-2.60;99.90;;;;;;5046721;28;20056;-59
2022/02/12 06:54:58;;;;;;;28.20;8.23;;;-2.50;99.90;;;;;;5039916;28;20064;-57
2022/02/12 06:57:23;;;;;;;26.60;6.47;;;-2.50;99.90;;;;;;5046944;28;20017;-57
2022/02/12 06:59:49;;;;;;;19.70;5.40;;;-2.40;99.90;;;;;;5035746;28;20022;-59
2022/02/12 07:02:14;;;;;;;24.70;4.80;;;-2.40;99.90;;;;;;5046847;28;20500;-58
2022/02/12 07:04:40;;;;;;;22.77;5.90;;;-2.40;99.90;;;;;;5039742;28;20033;-58
2022/02/12 07:07:06;;;;;;;20.97;6.40;;;-2.30;99.90;;;;;;5045206;28;20033;-59
2022/02/12 07:09:31;;;;;;;31.50;5.17;;;-2.20;99.90;;;;;;5050409;28;20029;-60
2022/02/12 07:11:57;;;;;;;17.80;4.57;;;-2.10;99.90;;;;;;5047988;28;20017;-59
2022/02/12 07:14:24;;;;;;;15.83;6.23;;;-1.90;99.90;;;;;;5045442;28;20028;-60
2022/02/12 07:16:50;;;;;;;22.73;4.73;;;-1.80;99.90;;;;;;5038691;28;20120;-59
2022/02/12 07:19:16;;;;;;;12.50;4.23;;;-1.70;99.90;;;;;;5040446;28;20125;-59
2022/02/12 07:21:41;;;;;;;22.93;5.73;;;-1.60;99.90;;;;;;5040580;28;20031;-60
2022/02/12 07:24:07;;;;;;;14.77;4.70;;;-1.60;99.90;;;;;;5039675;28;20850;-59
2022/02/12 07:26:32;;;;;;;24.77;4.30;;;-1.50;99.90;;;;;;5041785;28;20031;-60
2022/02/12 07:28:58;;;;;;;16.93;4.50;;;-1.40;99.90;;;;;;5044927;28;20029;-59
2022/02/12 07:31:23;;;;;;;19.03;4.30;;;-1.30;99.90;;;;;;5036825;28;20411;-58
2022/02/12 07:33:49;;;;;;;17.90;4.83;;;-1.30;99.90;;;;;;5032115;28;20052;-58
2022/02/12 07:36:14;;;;;;;19.73;4.40;;;-1.20;99.90;;;;;;5043846;28;20029;-59
2022/02/12 07:38:40;;;;;;;20.00;4.87;;;-1.10;99.90;;;;;;5043345;28;20108;-59
2022/02/12 07:41:06;;;;;;;13.77;4.47;;;-1.00;99.90;;;;;;5050543;28;20510;-60
2022/02/12 07:43:32;;;;;;;15.50;4.70;;;-0.90;99.90;;;;;;5045507;28;20116;-58
2022/02/12 07:45:59;;;;;;;21.47;3.90;;;-0.80;99.90;;;;;;5046823;28;20025;-56
2022/02/12 07:48:25;;;;;;;12.47;4.33;;;-0.80;99.90;;;;;;5039530;28;20091;-56
2022/02/12 07:50:53;;;;;;;13.65;3.92;;;-0.60;99.90;;;;;;5037580;28;20032;-58
2022/02/12 07:53:19;;;;;;;20.45;4.57;;;-0.50;99.90;;;;;;5048847;28;20510;-59
2022/02/12 07:55:44;;;;;;;13.38;3.80;;;-0.40;99.90;;;;;;5036952;28;20026;-58
2022/02/12 07:58:10;;;;;;;14.73;3.85;;;-0.30;99.90;;;;;;5044722;28;20033;-59
2022/02/12 08:00:35;;;;;;;23.25;4.18;;;-0.30;99.90;;;;;;5010277;28;20037;-59
2022/02/12 08:03:01;;;;;;;15.70;3.83;;;-0.20;99.90;;;;;;5038965;28;20689;-59
2022/02/12 08:05:27;;;;;;;14.85;3.90;;;-0.10;99.90;;;;;;5040024;28;20041;-60
2022/02/12 08:07:53;;;;;;;20.20;4.10;;;0.00;99.90;;;;;;5033808;28;20115;-59
2022/02/12 08:13:02;;;;;;;12.50;3.03;;;0.20;99.90;;;;;;5032832;28;20036;-60
2022/02/12 08:15:30;;;;;;;20.25;4.00;;;0.40;99.90;;;;;;5035183;28;20057;-58
2022/02/12 08:17:57;;;;;;;12.30;3.78;;;0.50;99.90;;;;;;5037915;28;20021;-60
2022/02/12 08:20:24;;;;;;;13.73;3.88;;;0.60;99.90;;;;;;5047614;28;20116;-58
2022/02/12 08:22:52;;;;;;;20.60;4.97;;;0.70;99.90;;;;;;5035280;28;20672;-59
2022/02/12 08:25:21;;;;;;;20.65;4.65;;;0.90;99.90;;;;;;5034045;28;20038;-60
2022/02/12 08:27:47;;;;;;;14.52;3.72;;;1.00;99.90;;;;;;5038035;28;20520;-60
2022/02/12 08:30:12;;;;;;;14.63;3.70;;;1.10;99.90;;;;;;5037727;28;20052;-59
2022/02/12 08:32:42;;;;;;;16.08;4.13;;;1.10;99.90;;;;;;5047611;28;20026;-60
2022/02/12 08:35:10;;;;;;;19.70;4.65;;;1.20;99.90;;;;;;5017869;28;20120;-61
2022/02/12 08:37:39;;;;;;;15.55;3.92;;;1.40;99.90;;;;;;5040468;28;20034;-60
2022/02/12 08:40:06;;;;;;;11.13;3.55;;;1.40;99.90;;;;;;5043757;28;20021;-61
2022/02/12 08:42:32;;;;;;;17.30;4.47;;;1.50;99.90;;;;;;5038515;28;20037;-58
2022/02/12 08:44:57;;;;;;;14.30;4.40;;;1.50;99.90;;;;;;5033583;28;20491;-61
2022/02/12 08:47:23;;;;;;;12.50;3.72;;;1.50;99.90;;;;;;5036407;28;20507;-61
2022/02/12 08:49:48;;;;;;;15.55;4.00;;;1.60;99.90;;;;;;5043299;28;20083;-60
2022/02/12 08:52:14;;;;;;;13.52;4.38;;;1.70;99.90;;;;;;5041271;28;20025;-60
2022/02/12 08:54:40;;;;;;;17.80;4.85;;;1.80;99.90;;;;;;5039473;28;20025;-60
2022/02/12 08:57:06;;;;;;;15.10;4.13;;;1.80;99.90;;;;;;5049454;28;20108;-62
2022/02/12 08:59:31;;;;;;;16.75;3.80;;;1.90;99.90;;;;;;5043545;28;20100;-60
2022/02/12 09:01:57;;;;;;;21.27;4.60;;;2.00;99.90;;;;;;5028626;28;20129;-60
2022/02/12 09:04:23;;;;;;;15.55;4.32;;;2.00;99.90;;;;;;5043552;28;20091;-60
2022/02/12 09:06:49;;;;;;;16.73;4.68;;;2.10;99.90;;;;;;5047072;28;20029;-60
2022/02/12 09:09:16;;;;;;;15.80;3.53;;;2.20;99.90;;;;;;5034068;28;20606;-60
2022/02/12 09:11:43;;;;;;;16.10;3.92;;;2.40;99.90;;;;;;5042229;28;20080;-59
2022/02/12 09:14:10;;;;;;;16.55;4.43;;;2.60;99.90;;;;;;5034556;28;20032;-59
2022/02/12 09:16:38;;;;;;;16.42;4.07;;;2.70;99.90;;;;;;5047400;28;20028;-59
2022/02/12 09:19:05;;;;;;;12.13;3.67;;;2.80;99.90;;;;;;5038142;28;20064;-60
2022/02/12 09:21:31;;;;;;;20.27;4.47;;;2.90;99.90;;;;;;5034387;28;20049;-59
2022/02/12 09:23:57;;;;;;;16.40;4.28;;;3.00;99.90;;;;;;5038567;28;20467;-59
2022/02/12 09:26:41;;;;;;;14.35;3.65;;;3.20;99.90;;;;;;5044550;28;20033;-60
2022/02/12 09:29:10;;;;;;;10.90;3.53;;;3.20;99.90;;;;;;5048133;28;20032;-60
2022/02/12 09:31:35;;;;;;;18.38;3.70;;;3.30;99.90;;;;;;5034395;28;20021;-60
2022/02/12 09:34:01;;;;;;;11.77;3.75;;;3.40;99.90;;;;;;5043605;28;20036;-59
2022/02/12 09:36:27;;;;;;;15.07;3.42;;;3.40;99.90;;;;;;5027005;28;20057;-60
2022/02/12 09:38:53;;;;;;;22.05;4.05;;;3.50;99.90;;;;;;5040371;28;20052;-59
2022/02/12 09:41:23;;;;;;;18.65;6.10;;;3.60;99.90;;;;;;5035165;28;20028;-58
2022/02/12 09:43:50;;;;;;;19.23;3.83;;;3.70;99.90;;;;;;5033174;28;20718;-60
2022/02/12 09:46:25;;;;;;;18.85;4.10;;;4.00;99.90;;;;;;5034093;28;20032;-60
2022/02/12 09:48:51;;;;;;;14.88;3.83;;;4.30;99.90;;;;;;5034156;28;20017;-60
2022/02/12 09:51:18;;;;;;;9.55;3.50;;;4.50;99.90;;;;;;5037713;28;20040;-60
2022/02/12 09:53:44;;;;;;;14.00;3.42;;;4.50;99.90;;;;;;5032559;28;20104;-60
2022/02/12 09:56:10;;;;;;;12.75;4.00;;;4.90;99.90;;;;;;5049494;28;20115;-60
2022/02/12 09:58:35;;;;;;;20.15;4.75;;;5.20;99.90;;;;;;5037050;28;20017;-59
2022/02/12 10:01:01;;;;;;;20.73;3.67;;;5.30;99.90;;;;;;5049506;28;20457;-59
2022/02/12 10:03:27;;;;;;;17.40;4.00;;;5.30;99.90;;;;;;5037956;28;20160;-59
2022/02/12 10:05:53;;;;;;;14.15;3.55;;;5.50;99.90;;;;;;5036150;28;20120;-60
2022/02/12 10:08:21;;;;;;;20.17;3.97;;;5.60;99.90;;;;;;5022716;28;20067;-59
2022/02/12 10:10:48;;;;;;;11.65;4.25;;;5.70;99.90;;;;;;5041866;28;20037;-60
2022/02/12 10:13:30;;;;;;;13.10;4.18;;;5.90;99.90;;;;;;5033332;28;20583;-60
2022/02/12 10:15:58;;;;;;;11.20;3.95;;;5.70;99.90;;;;;;5048664;28;20040;-60
2022/02/12 10:18:29;;;;;;;18.17;3.55;;;5.70;99.90;;;;;;5043601;28;20545;-60
2022/02/12 10:20:56;;;;;;;15.95;4.10;;;5.80;99.90;;;;;;5032391;28;20033;-60
2022/02/12 10:23:30;;;;;;;15.07;3.60;;;5.90;99.90;;;;;;5040809;28;20108;-59
2022/02/12 10:26:01;;;;;;;13.73;3.20;;;5.90;99.90;;;;;;5034018;28;20036;-56
2022/02/12 10:28:28;;;;;;;16.38;3.85;;;5.90;99.90;;;;;;5038302;28;20041;-60
2022/02/12 10:30:56;;;;;;;17.83;3.45;;;5.80;99.90;;;;;;5040377;28;20032;-59
2022/02/12 10:33:23;;;;;;;14.32;3.63;;;5.80;99.90;;;;;;5034779;28;20029;-59
2022/02/12 10:36:00;;;;;;;14.13;3.30;;;5.80;99.90;;;;;;5022492;28;20048;-59
2022/02/12 10:38:28;;;;;;;11.00;3.60;;;5.70;99.90;;;;;;5032128;28;20026;-59
2022/02/12 10:41:26;;;;;;;18.48;3.22;;;5.80;99.90;;;;;;5042367;28;20030;-60
2022/02/12 10:43:53;;;;;;;12.45;3.33;;;5.80;99.90;;;;;;5014180;28;20041;-60
2022/02/12 10:46:19;;;;;;;13.63;5.20;;;5.70;99.90;;;;;;5026345;28;20102;-60
2022/02/12 10:48:49;;;;;;;12.75;3.75;;;5.60;99.90;;;;;;5030081;28;20017;-59
2022/02/12 10:51:16;;;;;;;23.38;8.68;;;5.50;99.90;;;;;;5024818;28;20513;-59
2022/02/12 10:53:59;;;;;;;13.88;4.07;;;5.40;99.90;;;;;;5028969;28;20168;-59
2022/02/12 10:56:52;;;;;;;16.85;4.25;;;5.40;99.90;;;;;;5029287;28;20083;-59
2022/02/12 10:59:23;;;;;;;16.17;4.32;;;5.50;99.90;;;;;;5019339;28;20026;-59
2022/02/12 11:01:50;;;;;;;17.02;3.85;;;5.50;99.90;;;;;;5022889;28;20042;-60
2022/02/12 11:04:17;;;;;;;17.70;4.72;;;5.60;99.90;;;;;;5027175;28;20356;-59
2022/02/12 11:06:46;;;;;;;13.05;3.45;;;5.60;99.90;;;;;;5026611;28;20148;-59
2022/02/12 11:09:12;;;;;;;27.92;7.53;;;5.60;99.90;;;;;;5027625;28;20044;-58
2022/02/12 11:11:38;;;;;;;19.17;6.47;;;5.70;99.90;;;;;;5028746;28;20752;-57
2022/02/12 11:14:08;;;;;;;16.95;4.90;;;5.70;99.90;;;;;;5027812;28;20021;-59
2022/02/12 11:16:36;;;;;;;13.15;3.50;;;5.80;99.90;;;;;;5030411;28;20406;-59
2022/02/12 11:19:03;;;;;;;34.70;11.68;;;5.90;99.90;;;;;;5028668;28;20291;-60
2022/02/12 11:21:30;;;;;;;15.07;4.05;;;5.90;99.90;;;;;;5028111;28;20025;-60
2022/02/12 11:24:00;;;;;;;13.90;3.25;;;5.90;99.90;;;;;;5032902;28;20100;-59
2022/02/12 11:26:26;;;;;;;16.30;4.88;;;5.90;99.90;;;;;;5032782;28;20123;-59
2022/02/12 11:28:52;;;;;;;15.07;4.53;;;5.80;99.90;;;;;;5023387;28;20399;-59
2022/02/12 11:31:22;;;;;;;15.05;3.10;;;5.90;99.90;;;;;;5033453;28;20033;-58
2022/02/12 11:34:03;;;;;;;11.63;3.58;;;5.90;99.90;;;;;;5011924;28;20071;-59
2022/02/12 11:36:30;;;;;;;10.82;3.08;;;5.90;99.90;;;;;;5017848;28;20045;-59
2022/02/12 11:39:14;;;;;;;13.45;3.25;;;5.90;99.90;;;;;;5033767;28;20036;-60
2022/02/12 11:41:47;;;;;;;12.25;3.30;;;5.90;99.90;;;;;;5041881;28;20594;-59
2022/02/12 11:44:47;;;;;;;12.80;3.50;;;5.90;99.90;;;;;;5039349;28;21144;-60
2022/02/12 11:47:14;;;;;;;10.07;3.28;;;5.90;99.90;;;;;;5038684;28;20585;-58
2022/02/12 11:49:44;;;;;;;13.10;2.95;;;6.00;99.90;;;;;;5041448;28;20029;-59
2022/02/12 11:52:16;;;;;;;13.98;3.72;;;6.00;99.90;;;;;;5035066;28;20025;-60
2022/02/12 11:54:45;;;;;;;14.73;2.72;;;6.00;99.90;;;;;;5036802;28;20047;-59
2022/02/12 11:57:14;;;;;;;16.27;3.08;;;6.00;99.90;;;;;;5036325;28;20029;-59
2022/02/12 11:59:40;;;;;;;11.75;3.65;;;6.10;99.90;;;;;;5043538;28;20440;-59
2022/02/12 12:02:06;;;;;;;16.23;3.33;;;6.10;99.90;;;;;;5050178;28;20017;-58
2022/02/12 12:04:33;;;;;;;9.35;2.30;;;6.10;99.90;;;;;;5051930;28;20059;-59
2022/02/12 12:07:11;;;;;;;21.05;5.32;;;6.20;99.90;;;;;;5042449;28;20017;-58
2022/02/12 12:10:07;;;;;;;14.20;4.47;;;6.20;99.90;;;;;;5041262;28;20053;-60
2022/02/12 12:12:32;;;;;;;15.30;3.67;;;6.30;99.90;;;;;;5040204;28;20383;-60
2022/02/12 12:15:15;;;;;;;16.65;4.22;;;6.30;99.80;;;;;;5040543;28;20818;-57
2022/02/12 12:17:42;;;;;;;9.05;2.83;;;6.30;99.90;;;;;;5035495;28;20017;-60
2022/02/12 12:20:10;;;;;;;10.27;3.03;;;6.30;99.70;;;;;;5042753;28;20143;-58
2022/02/12 12:22:36;;;;;;;10.32;3.10;;;6.20;99.30;;;;;;5043056;28;20060;-60
2022/02/12 12:25:01;;;;;;;8.00;2.90;;;6.20;98.90;;;;;;5031780;28;20095;-58
2022/02/12 12:27:27;;;;;;;10.77;3.40;;;6.20;98.40;;;;;;5032934;28;20083;-59
2022/02/12 12:32:36;;;;;;;10.98;3.00;;;6.10;98.90;;;;;;5038797;28;20094;-59
2022/02/12 12:35:07;;;;;;;7.40;3.38;;;6.10;98.40;;;;;;5042337;28;20437;-59
2022/02/12 12:37:49;;;;;;;11.75;3.53;;;6.10;99.00;;;;;;5021200;28;20037;-58
2022/02/12 12:40:15;;;;;;;9.10;2.10;;;6.00;98.90;;;;;;5035686;28;20045;-60
2022/02/12 12:42:40;;;;;;;13.85;2.67;;;6.10;99.30;;;;;;5049660;28;20502;-60
2022/02/12 12:45:12;;;;;;;7.78;2.67;;;6.00;99.40;;;;;;5033718;28;20099;-59
2022/02/12 12:47:47;;;;;;;12.52;2.88;;;6.10;98.70;;;;;;5027439;28;20052;-59
2022/02/12 12:50:13;;;;;;;7.45;2.10;;;6.00;98.70;;;;;;5017611;28;20021;-56
2022/02/12 12:52:39;;;;;;;11.02;2.17;;;6.10;98.90;;;;;;5029506;28;20030;-58